createdAt,value
2017-12-04T00:01:52.557Z,86.20
2017-12-04T00:04:20.483Z,85.70
2017-12-04T00:06:49.386Z,86.50
2017-12-04T00:09:17.734Z,86.70
2017-12-04T00:11:45.199Z,86.30
2017-12-04T00:14:13.475Z,87.00
2017-12-04T00:16:41.690Z,86.80
2017-12-04T00:19:09.176Z,86.40
2017-12-04T00:21:37.000Z,86.50
2017-12-04T00:24:05.116Z,86.30
2017-12-04T00:26:32.593Z,86.20
2017-12-04T00:29:00.089Z,86.10
2017-12-04T00:31:27.981Z,85.70
2017-12-04T00:33:55.551Z,86.20
2017-12-04T00:36:23.224Z,86.00
2017-12-04T00:38:51.559Z,86.30
2017-12-04T00:41:19.170Z,86.00
2017-12-04T00:43:47.263Z,86.00
2017-12-04T00:46:15.506Z,86.40
2017-12-04T00:48:43.045Z,86.00
2017-12-04T00:51:10.716Z,86.00
2017-12-04T00:53:38.177Z,86.00
2017-12-04T00:56:05.828Z,86.10
2017-12-04T00:58:33.363Z,86.10
2017-12-04T01:01:00.814Z,86.10
2017-12-04T01:03:28.849Z,86.10
2017-12-04T01:05:57.060Z,86.50
2017-12-04T01:08:24.956Z,86.10
2017-12-04T01:10:52.396Z,85.90
2017-12-04T01:13:19.864Z,85.90
2017-12-04T01:15:47.312Z,85.90
2017-12-04T01:18:15.129Z,86.10
2017-12-04T01:20:43.369Z,86.60
2017-12-04T01:23:11.133Z,86.20
2017-12-04T01:25:38.596Z,86.40
2017-12-04T01:28:06.032Z,86.30
2017-12-04T01:30:33.568Z,86.10
2017-12-04T01:33:01.013Z,86.10
2017-12-04T01:35:28.736Z,86.10
2017-12-04T01:37:56.236Z,86.10
2017-12-04T01:40:23.697Z,86.00
2017-12-04T01:42:51.753Z,86.00
2017-12-04T01:45:20.146Z,86.30
2017-12-04T01:47:47.620Z,85.90
2017-12-04T01:50:15.084Z,85.90
2017-12-04T01:52:42.989Z,85.80
2017-12-04T01:55:11.212Z,86.00
2017-12-04T01:57:38.688Z,85.60
2017-12-04T02:00:06.215Z,85.40
2017-12-04T02:02:33.698Z,85.30
2017-12-04T02:07:40.277Z,85.00
2017-12-04T02:10:07.732Z,85.10
2017-12-04T02:12:35.264Z,85.10
2017-12-04T02:15:02.718Z,84.90
2017-12-04T02:17:30.973Z,85.20
2017-12-04T02:19:58.592Z,84.80
2017-12-04T02:22:26.493Z,84.70
2017-12-04T02:24:53.974Z,84.70
2017-12-04T02:27:22.169Z,85.40
2017-12-04T02:29:49.633Z,85.00
2017-12-04T02:32:17.164Z,85.10
2017-12-04T02:34:45.431Z,85.60
2017-12-04T02:37:13.942Z,85.80
2017-12-04T02:39:41.913Z,85.40
2017-12-04T02:42:09.352Z,85.40
2017-12-04T02:44:37.224Z,85.40
2017-12-04T02:47:04.692Z,85.40
2017-12-04T02:49:32.169Z,85.30
2017-12-04T02:52:00.084Z,85.40
2017-12-04T02:54:28.390Z,85.90
2017-12-04T02:56:55.843Z,85.50
2017-12-04T02:59:23.405Z,85.50
2017-12-04T03:01:51.393Z,85.50
2017-12-04T03:04:18.872Z,85.20
2017-12-04T03:06:46.942Z,85.10
2017-12-04T03:09:14.584Z,85.10
2017-12-04T03:11:42.034Z,85.10
2017-12-04T03:14:09.534Z,84.90
2017-12-04T03:16:37.055Z,85.00
2017-12-04T03:19:04.533Z,85.10
2017-12-04T03:21:32.202Z,85.00
2017-12-04T03:24:00.813Z,85.70
2017-12-04T03:26:29.453Z,85.70
2017-12-04T03:29:00.909Z,85.30
2017-12-04T03:31:28.406Z,85.50
2017-12-04T03:33:55.891Z,86.10
2017-12-04T03:36:23.546Z,85.40
2017-12-04T03:38:51.136Z,85.60
2017-12-04T03:41:18.638Z,85.50
2017-12-04T03:43:47.225Z,85.80
2017-12-04T03:46:15.283Z,85.40
2017-12-04T03:48:43.716Z,85.90
2017-12-04T03:51:11.184Z,85.50
2017-12-04T03:53:39.037Z,85.30
2017-12-04T03:56:06.508Z,85.40
2017-12-04T03:58:34.033Z,85.30
2017-12-04T04:01:01.795Z,85.40
2017-12-04T04:03:29.297Z,85.40
2017-12-04T04:05:57.197Z,85.40
2017-12-04T04:08:25.498Z,85.80
2017-12-04T04:10:52.955Z,85.30
2017-12-04T04:13:22.050Z,85.30
2017-12-04T04:15:49.670Z,85.50
2017-12-04T04:18:17.112Z,85.70
2017-12-04T04:20:46.212Z,86.10
2017-12-04T04:23:14.076Z,85.70
2017-12-04T04:25:41.557Z,85.70
2017-12-04T04:28:09.910Z,86.10
2017-12-04T04:30:37.456Z,85.70
2017-12-04T04:33:05.530Z,85.80
2017-12-04T04:35:33.351Z,85.80
2017-12-04T04:38:00.790Z,85.80
2017-12-04T04:40:28.396Z,85.60
2017-12-04T04:42:56.460Z,85.70
2017-12-04T04:45:24.360Z,85.70
2017-12-04T04:47:51.871Z,85.80
2017-12-04T04:50:19.731Z,85.70
2017-12-04T04:52:47.661Z,85.80
2017-12-04T04:55:15.119Z,85.80
2017-12-04T04:57:43.356Z,86.30
2017-12-04T05:00:10.825Z,85.80
2017-12-04T05:02:38.610Z,85.90
2017-12-04T05:05:07.234Z,86.00
2017-12-04T05:07:34.714Z,85.60
2017-12-04T05:10:02.296Z,85.50
2017-12-04T05:12:29.819Z,85.50
2017-12-04T05:14:57.309Z,85.40
2017-12-04T05:17:25.302Z,85.50
2017-12-04T05:19:53.609Z,86.10
2017-12-04T05:22:21.691Z,85.70
2017-12-04T05:24:49.649Z,85.70
2017-12-04T05:27:17.120Z,85.70
2017-12-04T05:29:44.664Z,85.70
2017-12-04T05:32:12.121Z,85.70
2017-12-04T05:34:39.682Z,85.70
2017-12-04T05:37:08.186Z,85.70
2017-12-04T05:39:35.626Z,85.60
2017-12-04T05:42:04.093Z,85.90
2017-12-04T05:44:32.169Z,85.80
2017-12-04T05:46:59.624Z,85.60
2017-12-04T05:49:27.182Z,85.60
2017-12-04T05:51:54.638Z,85.60
2017-12-04T05:54:22.334Z,85.70
2017-12-04T05:56:49.796Z,85.60
2017-12-04T05:59:17.259Z,85.60
2017-12-04T06:01:44.842Z,85.60
2017-12-04T06:04:13.492Z,86.00
2017-12-04T06:06:40.951Z,85.40
2017-12-04T06:09:08.472Z,85.40
2017-12-04T06:11:35.929Z,85.50
2017-12-04T06:14:03.401Z,85.60
2017-12-04T06:16:30.840Z,85.50
2017-12-04T06:18:58.767Z,85.50
2017-12-04T06:21:26.208Z,85.50
2017-12-04T06:23:53.693Z,85.50
2017-12-04T06:26:21.180Z,85.60
2017-12-04T06:28:48.623Z,85.50
2017-12-04T06:31:16.109Z,85.20
2017-12-04T06:33:43.703Z,85.20
2017-12-04T06:36:11.311Z,85.20
2017-12-04T06:38:38.742Z,85.30
2017-12-04T06:41:06.469Z,85.20
2017-12-04T06:46:28.375Z,85.50
2017-12-04T06:48:56.142Z,85.00
2017-12-04T06:51:23.613Z,85.00
2017-12-04T06:53:53.180Z,85.00
2017-12-04T06:56:21.456Z,85.20
2017-12-04T06:58:49.754Z,85.10
2017-12-04T07:01:17.209Z,84.60
2017-12-04T07:03:45.431Z,84.70
2017-12-04T07:06:12.904Z,84.60
2017-12-04T07:08:41.535Z,84.80
2017-12-04T07:11:08.969Z,84.40
2017-12-04T07:13:37.117Z,84.30
2017-12-04T07:16:05.430Z,84.90
2017-12-04T07:18:33.316Z,84.40
2017-12-04T07:21:00.791Z,84.20
2017-12-04T07:23:28.867Z,84.10
2017-12-04T07:25:56.386Z,84.00
2017-12-04T07:28:23.824Z,84.00
2017-12-04T07:30:51.300Z,83.90
2017-12-04T07:33:18.760Z,83.90
2017-12-04T07:35:46.280Z,83.90
2017-12-04T07:38:14.660Z,84.30
2017-12-04T07:40:42.913Z,84.30
2017-12-04T07:43:10.349Z,83.80
2017-12-04T07:45:37.831Z,83.90
2017-12-04T07:48:05.773Z,84.40
2017-12-04T07:50:33.210Z,83.90
2017-12-04T07:53:00.678Z,84.00
2017-12-04T07:55:28.154Z,83.90
2017-12-04T07:57:55.677Z,83.70
2017-12-04T08:00:23.160Z,83.80
2017-12-04T08:02:50.900Z,83.80
2017-12-04T08:05:18.351Z,83.70
2017-12-04T08:07:46.179Z,83.60
2017-12-04T08:10:14.489Z,84.10
2017-12-04T08:12:41.999Z,83.60
2017-12-04T08:15:10.682Z,84.10
2017-12-04T08:17:38.144Z,83.70
2017-12-04T08:20:06.394Z,84.50
2017-12-04T08:22:33.837Z,83.50
2017-12-04T08:25:01.378Z,83.60
2017-12-04T08:27:29.553Z,83.70
2017-12-04T08:29:57.116Z,83.80
2017-12-04T08:32:24.558Z,84.00
2017-12-04T08:34:52.214Z,84.20
2017-12-04T08:37:19.658Z,84.20
2017-12-04T08:39:47.685Z,84.30
2017-12-04T08:42:15.112Z,84.20
2017-12-04T08:44:42.563Z,84.10
2017-12-04T08:47:10.972Z,83.80
2017-12-04T08:49:38.409Z,83.70
2017-12-04T08:52:05.870Z,83.70
2017-12-04T08:54:33.311Z,83.60
2017-12-04T08:57:00.791Z,83.40
2017-12-04T08:59:29.588Z,83.40
2017-12-04T09:01:57.423Z,83.20
2017-12-04T09:04:24.849Z,83.20
2017-12-04T09:06:52.436Z,83.10
2017-12-04T09:09:19.856Z,83.00
2017-12-04T09:11:48.171Z,83.30
2017-12-04T09:14:16.182Z,83.00
2017-12-04T09:16:43.625Z,83.10
2017-12-04T09:19:11.116Z,83.20
2017-12-04T09:21:38.518Z,83.10
2017-12-04T09:24:05.971Z,83.10
2017-12-04T09:26:33.408Z,83.30
2017-12-04T09:29:00.887Z,83.60
2017-12-04T09:31:28.321Z,83.60
2017-12-04T09:33:55.960Z,83.70
2017-12-04T09:36:24.309Z,84.40
2017-12-04T09:38:52.158Z,83.90
2017-12-04T09:41:19.597Z,84.00
2017-12-04T09:43:47.687Z,84.20
2017-12-04T09:46:15.130Z,84.30
2017-12-04T09:48:43.828Z,84.30
2017-12-04T09:51:11.469Z,84.40
2017-12-04T09:53:39.147Z,84.40
2017-12-04T09:56:08.117Z,84.50
2017-12-04T09:58:36.276Z,84.50
2017-12-04T10:01:05.225Z,84.90
2017-12-04T10:03:34.465Z,84.50
2017-12-04T10:06:03.066Z,85.10
2017-12-04T10:08:30.529Z,84.70
2017-12-04T10:10:59.001Z,84.80
2017-12-04T10:13:27.864Z,84.90
2017-12-04T10:15:55.314Z,85.00
2017-12-04T10:18:23.623Z,85.50
2017-12-04T10:20:51.079Z,85.00
2017-12-04T10:23:18.543Z,85.20
2017-12-04T10:25:46.513Z,85.20
2017-12-04T10:28:14.036Z,85.30
2017-12-04T10:30:41.497Z,85.20
2017-12-04T10:33:09.018Z,85.00
2017-12-04T10:35:36.455Z,85.30
2017-12-04T10:38:03.943Z,85.60
2017-12-04T10:40:31.410Z,85.70
2017-12-04T10:42:59.615Z,86.20
2017-12-04T10:45:27.253Z,85.80
2017-12-04T10:47:55.283Z,85.90
2017-12-04T10:50:23.965Z,86.00
2017-12-04T10:52:51.836Z,85.80
2017-12-04T10:55:19.462Z,85.40
2017-12-04T10:57:46.898Z,84.80
2017-12-04T11:00:15.452Z,83.90
2017-12-04T11:02:42.912Z,83.50
2017-12-04T11:05:10.344Z,83.60
2017-12-04T11:07:38.029Z,83.70
2017-12-04T11:10:06.291Z,84.00
2017-12-04T11:12:33.725Z,83.60
2017-12-04T11:15:01.775Z,83.70
2017-12-04T11:17:29.391Z,83.80
2017-12-04T11:19:57.009Z,83.60
2017-12-04T11:22:24.437Z,83.90
2017-12-04T11:24:52.029Z,84.10
2017-12-04T11:27:19.504Z,83.90
2017-12-04T11:29:46.945Z,83.90
2017-12-04T11:32:14.509Z,83.30
2017-12-04T11:34:41.953Z,83.10
2017-12-04T11:37:09.432Z,82.60
2017-12-04T11:39:36.965Z,82.30
2017-12-04T11:42:04.401Z,82.10
2017-12-04T11:44:32.204Z,82.20
2017-12-04T11:47:00.489Z,81.80
2017-12-04T11:49:28.444Z,81.80
2017-12-04T11:51:58.836Z,82.10
2017-12-04T11:54:26.354Z,81.70
2017-12-04T11:56:53.816Z,81.80
2017-12-04T11:59:21.653Z,81.90
2017-12-04T12:01:49.116Z,81.70
2017-12-04T12:04:16.554Z,82.00
2017-12-04T12:06:44.227Z,82.30
2017-12-04T12:09:12.304Z,82.60
2017-12-04T12:11:39.825Z,83.00
2017-12-04T12:14:09.945Z,83.10
2017-12-04T12:16:38.590Z,83.20
2017-12-04T12:19:06.805Z,84.00
2017-12-04T12:21:34.255Z,83.40
2017-12-04T12:24:01.714Z,83.40
2017-12-04T12:26:29.173Z,83.40
2017-12-04T12:28:57.861Z,83.60
2017-12-04T12:31:25.731Z,83.50
2017-12-04T12:33:54.225Z,83.40
2017-12-04T12:36:21.665Z,83.50
2017-12-04T12:38:49.135Z,83.70
2017-12-04T12:41:16.585Z,83.40
2017-12-04T12:43:44.157Z,83.20
2017-12-04T12:46:11.620Z,83.30
2017-12-04T12:48:39.376Z,83.20
2017-12-04T12:51:06.816Z,83.10
2017-12-04T12:53:34.366Z,82.60
2017-12-04T12:56:01.827Z,82.50
2017-12-04T12:58:30.043Z,83.60
2017-12-04T13:00:57.535Z,83.60
2017-12-04T13:03:24.996Z,81.40
2017-12-04T13:05:52.470Z,80.50
2017-12-04T13:08:19.984Z,80.70
2017-12-04T13:10:48.303Z,79.50
2017-12-04T13:13:16.394Z,79.40
2017-12-04T13:15:43.852Z,77.10
2017-12-04T13:18:11.312Z,77.70
2017-12-04T13:20:39.252Z,76.00
2017-12-04T13:23:06.709Z,76.30
2017-12-04T13:25:34.167Z,76.50
2017-12-04T13:28:01.613Z,76.00
2017-12-04T13:30:29.090Z,76.20
2017-12-04T13:33:22.353Z,76.90
2017-12-04T13:36:01.675Z,77.40
2017-12-04T13:38:29.172Z,78.00
2017-12-04T13:40:57.408Z,78.60
2017-12-04T13:43:24.862Z,78.60
2017-12-04T13:45:52.927Z,78.90
2017-12-04T13:48:21.733Z,79.10
2017-12-04T13:50:49.162Z,79.50
2017-12-04T13:53:17.056Z,79.30
2017-12-04T13:55:45.073Z,79.70
2017-12-04T13:58:14.317Z,79.70
2017-12-04T14:00:41.770Z,79.60
2017-12-04T14:03:09.229Z,79.80
2017-12-04T14:05:36.916Z,79.70
2017-12-04T14:08:04.348Z,79.80
2017-12-04T14:10:31.826Z,79.70
2017-12-04T14:13:00.210Z,79.80
2017-12-04T14:15:27.929Z,80.00
2017-12-04T14:17:55.395Z,79.70
2017-12-04T14:20:22.851Z,79.60
2017-12-04T14:22:50.319Z,79.30
2017-12-04T14:25:17.754Z,79.40
2017-12-04T14:27:45.540Z,79.30
2017-12-04T14:30:13.475Z,79.40
2017-12-04T14:32:41.749Z,79.10
2017-12-04T14:35:09.177Z,79.00
2017-12-04T14:37:36.665Z,79.50
2017-12-04T14:40:04.967Z,79.40
2017-12-04T14:42:33.067Z,79.30
2017-12-04T14:45:00.515Z,79.40
2017-12-04T14:47:28.599Z,79.40
2017-12-04T14:49:56.032Z,79.60
2017-12-04T14:52:23.473Z,79.60
2017-12-04T14:54:50.960Z,79.60
2017-12-04T14:57:18.896Z,79.70
2017-12-04T14:59:46.343Z,79.90
2017-12-04T15:02:13.809Z,79.50
2017-12-04T15:04:41.352Z,79.50
2017-12-04T15:07:09.548Z,79.50
2017-12-04T15:09:37.028Z,79.50
2017-12-04T15:12:04.796Z,79.60
2017-12-04T15:14:32.548Z,79.20
2017-12-04T15:17:00.069Z,79.20
2017-12-04T15:19:27.519Z,78.80
2017-12-04T15:21:54.979Z,78.90
2017-12-04T15:24:22.481Z,79.00
2017-12-04T15:26:49.884Z,79.20
2017-12-04T15:29:17.713Z,79.20
2017-12-04T15:31:45.658Z,79.00
2017-12-04T15:34:13.109Z,79.20
2017-12-04T15:36:40.539Z,79.30
2017-12-04T15:39:08.118Z,79.30
2017-12-04T15:41:35.853Z,79.30
2017-12-04T15:44:04.152Z,79.20
2017-12-04T15:46:31.615Z,79.30
2017-12-04T15:48:59.505Z,79.30
2017-12-04T15:51:27.008Z,79.10
2017-12-04T15:53:55.205Z,79.30
2017-12-04T15:56:23.177Z,79.30
2017-12-04T15:58:50.735Z,79.20
2017-12-04T16:01:18.198Z,79.30
2017-12-04T16:03:47.465Z,79.30
2017-12-04T16:06:15.662Z,79.30
2017-12-04T16:08:43.224Z,79.30
2017-12-04T16:11:10.689Z,79.10
2017-12-04T16:13:38.547Z,78.80
2017-12-04T16:16:06.005Z,78.80
2017-12-04T16:18:33.460Z,78.70
2017-12-04T16:21:01.118Z,78.70
2017-12-04T16:23:29.303Z,78.70
2017-12-04T16:25:56.782Z,78.80
2017-12-04T16:28:24.229Z,78.80
2017-12-04T16:30:52.479Z,78.80
2017-12-04T16:33:19.921Z,79.00
2017-12-04T16:35:47.500Z,79.10
2017-12-04T16:38:14.977Z,79.10
2017-12-04T16:40:42.443Z,79.10
2017-12-04T16:43:09.909Z,79.20
2017-12-04T16:45:37.433Z,79.20
2017-12-04T16:48:05.737Z,79.20
2017-12-04T16:50:33.197Z,79.20
2017-12-04T16:53:01.442Z,79.40
2017-12-04T16:55:29.138Z,79.40
2017-12-04T16:57:56.652Z,79.60
2017-12-04T17:00:24.083Z,79.70
2017-12-04T17:02:51.915Z,79.70
2017-12-04T17:05:19.388Z,79.60
2017-12-04T17:07:47.633Z,80.00
2017-12-04T17:10:15.165Z,79.90
2017-12-04T17:12:42.896Z,80.20
2017-12-04T17:15:10.837Z,80.30
2017-12-04T17:17:38.456Z,80.40
2017-12-04T17:20:06.038Z,80.30
2017-12-04T17:22:33.456Z,80.40
2017-12-04T17:25:00.918Z,80.40
2017-12-04T17:27:28.834Z,80.40
2017-12-04T17:29:56.908Z,80.50
2017-12-04T17:32:24.345Z,80.70
2017-12-04T17:34:51.858Z,80.70
2017-12-04T17:37:20.090Z,80.80
2017-12-04T17:39:47.715Z,80.70
2017-12-04T17:42:15.171Z,80.80
2017-12-04T17:44:42.765Z,80.90
2017-12-04T17:47:10.733Z,80.80
2017-12-04T17:49:38.258Z,80.80
2017-12-04T17:52:05.722Z,80.70
2017-12-04T17:54:33.800Z,80.70
2017-12-04T17:57:01.354Z,80.50
2017-12-04T17:59:29.619Z,80.30
2017-12-04T18:01:58.201Z,80.30
2017-12-04T18:04:25.638Z,80.20
2017-12-04T18:06:53.153Z,80.30
2017-12-04T18:09:20.673Z,80.30
2017-12-04T18:11:48.133Z,80.20
2017-12-04T18:14:16.138Z,80.30
2017-12-04T18:16:43.578Z,80.30
2017-12-04T18:19:11.065Z,80.20
2017-12-04T18:21:38.517Z,80.20
2017-12-04T18:24:06.166Z,80.40
2017-12-04T18:26:33.643Z,80.40
2017-12-04T18:29:03.230Z,80.90
2017-12-04T18:31:31.403Z,80.20
2017-12-04T18:33:58.868Z,80.20
2017-12-04T18:36:26.310Z,80.20
2017-12-04T18:38:53.866Z,80.10
2017-12-04T18:41:21.532Z,80.10
2017-12-04T18:43:48.977Z,80.00
2017-12-04T18:46:16.585Z,80.00
2017-12-04T18:48:45.406Z,79.80
2017-12-04T18:51:13.441Z,79.70
2017-12-04T18:53:43.017Z,79.30
2017-12-04T18:56:10.593Z,79.20
2017-12-04T18:58:38.917Z,79.40
2017-12-04T19:01:06.450Z,79.10
2017-12-04T19:03:34.654Z,79.00
2017-12-04T19:06:02.205Z,79.00
2017-12-04T19:08:29.688Z,79.10
2017-12-04T19:10:57.257Z,79.20
2017-12-04T19:13:25.134Z,79.90
2017-12-04T19:15:53.003Z,79.40
2017-12-04T19:18:20.799Z,79.40
2017-12-04T19:20:49.029Z,79.50
2017-12-04T19:23:16.470Z,79.50
2017-12-04T19:25:44.001Z,79.50
2017-12-04T19:28:12.236Z,79.50
2017-12-04T19:30:40.565Z,79.60
2017-12-04T19:33:08.084Z,79.50
2017-12-04T19:35:36.812Z,79.60
2017-12-04T19:38:04.366Z,79.50
2017-12-04T19:40:32.063Z,79.60
2017-12-04T19:42:59.617Z,79.90
2017-12-04T19:45:27.148Z,80.00
2017-12-04T19:47:55.170Z,80.00
2017-12-04T19:50:23.742Z,80.00
2017-12-04T19:52:52.442Z,80.00
2017-12-04T19:55:21.169Z,80.30
2017-12-04T19:57:48.611Z,80.30
2017-12-04T20:00:16.053Z,80.40
2017-12-04T20:02:44.320Z,80.60
2017-12-04T20:05:12.566Z,81.50
2017-12-04T20:07:40.125Z,80.80
2017-12-04T20:10:07.787Z,80.80
2017-12-04T20:12:35.352Z,80.80
2017-12-04T20:15:03.824Z,81.00
2017-12-04T20:17:31.359Z,81.00
2017-12-04T20:19:58.918Z,81.10
2017-12-04T20:22:26.418Z,81.00
2017-12-04T20:24:54.039Z,81.10
2017-12-04T20:27:21.588Z,81.00
2017-12-04T20:29:49.409Z,81.10
2017-12-04T20:32:17.792Z,81.10
2017-12-04T20:34:46.128Z,81.10
2017-12-04T20:37:13.608Z,81.10
2017-12-04T20:39:41.938Z,81.00
2017-12-04T20:42:09.365Z,80.90
2017-12-04T20:44:37.684Z,80.60
2017-12-04T20:47:05.865Z,80.60
2017-12-04T20:49:33.546Z,80.50
2017-12-04T20:52:01.582Z,80.50
2017-12-04T20:54:29.900Z,80.30
2017-12-04T20:56:57.410Z,80.10
2017-12-04T20:59:25.994Z,80.10
2017-12-04T21:01:53.516Z,80.20
2017-12-04T21:04:21.829Z,80.00
2017-12-04T21:06:49.565Z,80.00
2017-12-04T21:09:29.949Z,80.00
2017-12-04T21:11:57.444Z,80.00
2017-12-04T21:14:37.456Z,79.80
2017-12-04T21:17:16.996Z,79.90
2017-12-04T21:19:44.528Z,79.80
2017-12-04T21:22:11.972Z,79.90
2017-12-04T21:24:40.219Z,79.90
2017-12-04T21:27:07.665Z,79.80
2017-12-04T21:29:37.013Z,79.80
2017-12-04T21:32:05.205Z,80.00
2017-12-04T21:34:33.144Z,79.90
2017-12-04T21:37:01.352Z,80.10
2017-12-04T21:39:29.023Z,80.10
2017-12-04T21:41:56.768Z,80.00
2017-12-04T21:44:24.206Z,80.00
2017-12-04T21:46:55.634Z,80.20
2017-12-04T21:49:23.085Z,80.20
2017-12-04T21:51:52.117Z,80.10
2017-12-04T21:54:19.616Z,79.90
2017-12-04T21:56:47.133Z,80.00
2017-12-04T21:59:14.644Z,80.00
2017-12-04T22:01:42.255Z,80.00
2017-12-04T22:04:09.688Z,80.00
2017-12-04T22:06:37.902Z,80.10
2017-12-04T22:09:06.380Z,80.00
2017-12-04T22:11:34.144Z,80.00
2017-12-04T22:14:02.434Z,80.20
2017-12-04T22:16:29.894Z,80.50
2017-12-04T22:18:57.343Z,80.20
2017-12-04T22:21:24.780Z,80.30
2017-12-04T22:23:52.280Z,80.20
2017-12-04T22:26:20.110Z,80.40
2017-12-04T22:28:48.144Z,80.40
2017-12-04T22:31:16.354Z,80.50
2017-12-04T22:33:43.819Z,80.30
2017-12-04T22:36:11.280Z,80.30
2017-12-04T22:38:38.829Z,80.50
2017-12-04T22:41:06.278Z,80.60
2017-12-04T22:43:33.894Z,80.60
2017-12-04T22:46:01.853Z,80.70
2017-12-04T22:48:29.917Z,80.60
2017-12-04T22:50:58.225Z,80.50
2017-12-04T22:53:26.456Z,80.40
2017-12-04T22:55:53.894Z,80.30
2017-12-04T22:58:21.351Z,80.40
2017-12-04T23:00:49.132Z,80.20
2017-12-04T23:03:16.581Z,80.20
2017-12-04T23:05:44.029Z,80.40
2017-12-04T23:08:11.564Z,80.20
2017-12-04T23:10:39.175Z,80.10
2017-12-04T23:13:07.312Z,80.10
2017-12-04T23:15:35.153Z,80.30
2017-12-04T23:18:02.742Z,80.50
2017-12-04T23:20:30.736Z,80.50
2017-12-04T23:22:59.487Z,80.70
2017-12-04T23:25:28.157Z,81.10
2017-12-04T23:27:56.157Z,81.00
2017-12-04T23:30:24.048Z,81.10
2017-12-04T23:32:52.591Z,81.10
2017-12-04T23:35:20.720Z,81.10
2017-12-04T23:37:49.277Z,80.80
2017-12-04T23:40:17.700Z,80.70
2017-12-04T23:42:45.334Z,80.60
2017-12-04T23:45:13.844Z,81.00
2017-12-04T23:47:42.979Z,81.00
2017-12-04T23:50:10.532Z,81.00
2017-12-04T23:52:39.441Z,81.00
2017-12-04T23:55:06.968Z,81.00
2017-12-04T23:57:34.605Z,81.10
